createdAt,value
2019-01-26T00:00:59.694Z,27.73
2019-01-26T00:03:24.096Z,28.30
2019-01-26T00:05:54.320Z,25.87
2019-01-26T00:08:18.726Z,27.03
2019-01-26T00:10:43.120Z,29.47
2019-01-26T00:13:07.598Z,26.57
2019-01-26T00:15:32.078Z,28.73
2019-01-26T00:17:56.486Z,27.03
2019-01-26T00:20:20.895Z,27.23
2019-01-26T00:22:45.313Z,27.87
2019-01-26T00:25:09.763Z,27.47
2019-01-26T00:27:34.155Z,26.23
2019-01-26T00:29:58.663Z,25.40
2019-01-26T00:32:23.086Z,24.63
2019-01-26T00:34:47.504Z,25.00
2019-01-26T00:37:11.913Z,26.43
2019-01-26T00:39:48.556Z,26.07
2019-01-26T00:42:12.964Z,25.20
2019-01-26T00:44:37.371Z,26.57
2019-01-26T00:47:01.786Z,24.43
2019-01-26T00:49:26.213Z,22.87
2019-01-26T00:51:50.610Z,21.00
2019-01-26T00:54:15.018Z,22.13
2019-01-26T00:56:39.444Z,21.43
2019-01-26T00:59:03.896Z,20.47
2019-01-26T01:01:28.367Z,20.67
2019-01-26T01:04:13.546Z,22.20
2019-01-26T01:06:37.986Z,22.10
2019-01-26T01:11:38.435Z,20.60
2019-01-26T01:14:02.916Z,19.47
2019-01-26T01:16:27.327Z,19.57
2019-01-26T01:18:51.733Z,19.57
2019-01-26T01:21:16.225Z,19.07
2019-01-26T01:23:40.681Z,18.90
2019-01-26T01:26:05.113Z,18.23
2019-01-26T01:28:29.565Z,18.07
2019-01-26T01:30:53.996Z,18.40
2019-01-26T01:33:18.485Z,18.07
2019-01-26T01:35:42.926Z,16.73
2019-01-26T01:38:07.327Z,17.17
2019-01-26T01:40:31.723Z,17.27
2019-01-26T01:42:56.138Z,17.93
2019-01-26T01:45:41.324Z,17.27
2019-01-26T01:48:05.801Z,15.90
2019-01-26T01:50:30.281Z,16.23
2019-01-26T01:52:54.726Z,16.33
2019-01-26T01:55:19.192Z,15.47
2019-01-26T01:57:43.929Z,16.57
2019-01-26T02:00:27.769Z,17.13
2019-01-26T02:02:52.155Z,16.33
2019-01-26T02:05:16.814Z,16.97
2019-01-26T02:07:41.220Z,17.30
2019-01-26T02:13:02.677Z,16.90
2019-01-26T02:15:27.180Z,16.23
2019-01-26T02:20:48.159Z,16.63
2019-01-26T02:23:12.558Z,18.00
2019-01-26T02:25:36.956Z,17.97
2019-01-26T02:28:01.375Z,18.97
2019-01-26T02:30:25.914Z,19.27
2019-01-26T02:32:50.331Z,19.77
2019-01-26T02:35:14.725Z,19.63
2019-01-26T02:37:39.152Z,18.57
2019-01-26T02:40:15.245Z,22.87
2019-01-26T02:42:39.661Z,20.50
2019-01-26T02:45:24.836Z,21.30
2019-01-26T02:47:49.249Z,20.63
2019-01-26T02:50:32.995Z,20.23
2019-01-26T02:53:09.830Z,21.43
2019-01-26T02:55:46.171Z,20.70
2019-01-26T02:58:10.579Z,19.50
2019-01-26T03:00:35.000Z,19.33
2019-01-26T03:02:59.403Z,20.57
2019-01-26T03:05:23.827Z,22.40
2019-01-26T03:07:48.569Z,21.93
2019-01-26T03:13:09.820Z,21.60
2019-01-26T03:15:34.262Z,20.40
2019-01-26T03:18:17.776Z,23.90
2019-01-26T03:20:42.207Z,19.97
2019-01-26T03:23:06.613Z,17.83
2019-01-26T03:25:36.258Z,20.80
2019-01-26T03:28:00.685Z,19.70
2019-01-26T03:33:22.387Z,20.40
2019-01-26T03:35:46.787Z,21.57
2019-01-26T03:38:11.202Z,19.20
2019-01-26T03:40:35.600Z,17.60
2019-01-26T03:43:00.020Z,19.90
2019-01-26T03:45:24.427Z,20.33
2019-01-26T03:47:48.823Z,22.50
2019-01-26T03:53:10.130Z,20.50
2019-01-26T03:55:47.072Z,22.40
2019-01-26T04:00:46.673Z,17.33
2019-01-26T04:05:50.620Z,22.73
2019-01-26T04:08:15.027Z,21.30
2019-01-26T04:10:39.471Z,22.43
2019-01-26T04:13:03.883Z,19.30
2019-01-26T04:15:28.282Z,20.60
2019-01-26T04:17:52.699Z,21.07
2019-01-26T04:20:29.325Z,20.97
2019-01-26T04:23:05.562Z,22.53
2019-01-26T04:25:30.003Z,22.10
2019-01-26T04:27:54.388Z,18.57
2019-01-26T04:30:37.908Z,19.47
2019-01-26T04:33:02.306Z,19.47
2019-01-26T04:35:26.707Z,19.03
2019-01-26T04:37:51.121Z,21.70
2019-01-26T04:43:12.344Z,21.00
2019-01-26T04:45:36.750Z,20.13
2019-01-26T04:48:01.149Z,23.57
2019-01-26T04:50:25.558Z,22.23
2019-01-26T04:52:49.953Z,22.07
2019-01-26T04:58:11.086Z,23.10
2019-01-26T05:00:36.360Z,21.30
2019-01-26T05:03:00.753Z,20.40
2019-01-26T05:05:25.171Z,24.53
2019-01-26T05:07:49.624Z,21.73
2019-01-26T05:13:11.229Z,20.97
2019-01-26T05:15:35.651Z,24.73
2019-01-26T05:18:00.054Z,23.03
2019-01-26T05:23:21.871Z,20.43
2019-01-26T05:25:46.292Z,24.77
2019-01-26T05:28:10.769Z,22.17
2019-01-26T05:30:35.316Z,24.23
2019-01-26T05:32:59.828Z,20.13
2019-01-26T05:35:35.843Z,21.70
2019-01-26T05:38:00.282Z,22.37
2019-01-26T05:40:24.719Z,20.57
2019-01-26T05:42:49.218Z,20.50
2019-01-26T05:48:10.245Z,22.17
2019-01-26T05:50:34.708Z,20.03
2019-01-26T05:52:59.151Z,20.63
2019-01-26T05:55:23.579Z,21.80
2019-01-26T05:57:48.120Z,22.97
2019-01-26T06:03:07.540Z,18.50
2019-01-26T06:05:32.051Z,19.33
2019-01-26T06:07:56.446Z,19.17
2019-01-26T06:10:20.869Z,18.60
2019-01-26T06:12:45.270Z,19.40
2019-01-26T06:15:22.299Z,20.10
2019-01-26T06:17:46.703Z,19.10
2019-01-26T06:23:07.996Z,19.97
2019-01-26T06:25:32.396Z,18.87
2019-01-26T06:27:56.821Z,18.03
2019-01-26T06:33:18.005Z,18.23
2019-01-26T06:35:42.406Z,17.13
2019-01-26T06:38:06.877Z,17.67
2019-01-26T06:40:31.278Z,21.30
2019-01-26T06:42:55.703Z,16.77
2019-01-26T06:45:32.643Z,15.70
2019-01-26T06:48:02.129Z,14.93
2019-01-26T06:50:32.761Z,16.97
2019-01-26T06:52:57.170Z,15.50
2019-01-26T07:00:34.772Z,12.97
2019-01-26T07:03:10.943Z,13.60
2019-01-26T07:10:47.077Z,13.63
2019-01-26T07:13:11.513Z,13.20
2019-01-26T07:15:35.959Z,11.70
2019-01-26T07:18:00.420Z,11.47
2019-01-26T07:20:37.485Z,11.23
2019-01-26T07:23:01.910Z,11.17
2019-01-26T07:25:26.316Z,10.23
2019-01-26T07:27:50.745Z,10.00
2019-01-26T07:30:34.523Z,10.40
2019-01-26T07:32:58.907Z,9.23
2019-01-26T07:35:34.690Z,9.53
2019-01-26T07:38:13.782Z,11.87
2019-01-26T07:40:37.794Z,16.27
2019-01-26T07:43:02.198Z,17.10
2019-01-26T07:45:26.615Z,13.87
2019-01-26T07:53:36.547Z,12.83
2019-01-26T07:58:52.014Z,13.43
2019-01-26T08:01:16.420Z,9.67
2019-01-26T08:03:40.839Z,15.23
2019-01-26T08:06:05.246Z,11.67
2019-01-26T08:08:29.646Z,11.13
2019-01-26T08:10:54.050Z,8.83
2019-01-26T08:13:18.456Z,8.10
2019-01-26T08:15:42.850Z,10.00
2019-01-26T08:18:07.246Z,10.83
2019-01-26T08:20:31.686Z,17.50
2019-01-26T08:22:56.093Z,15.73
2019-01-26T08:25:20.494Z,13.47
2019-01-26T08:27:44.997Z,10.50
2019-01-26T08:30:28.859Z,10.63
2019-01-26T08:33:04.755Z,9.10
2019-01-26T08:35:29.237Z,10.03
2019-01-26T08:37:53.731Z,9.50
2019-01-26T08:43:15.220Z,9.57
2019-01-26T08:45:39.641Z,11.77
2019-01-26T08:48:15.549Z,10.33
2019-01-26T08:50:39.963Z,9.23
2019-01-26T08:53:04.523Z,8.57
2019-01-26T08:55:28.915Z,9.83
2019-01-26T08:57:53.424Z,9.40
2019-01-26T09:03:33.509Z,10.30
2019-01-26T09:11:09.524Z,9.37
2019-01-26T09:13:33.923Z,10.77
2019-01-26T09:15:58.429Z,10.87
2019-01-26T09:18:22.817Z,10.80
2019-01-26T09:20:54.460Z,12.20
2019-01-26T09:23:18.855Z,10.10
2019-01-26T09:25:43.339Z,8.17
2019-01-26T09:30:55.148Z,8.40
2019-01-26T09:33:19.605Z,8.00
2019-01-26T09:35:44.025Z,7.30
2019-01-26T09:38:08.486Z,8.03
2019-01-26T09:40:32.880Z,7.83
2019-01-26T09:42:57.311Z,8.23
2019-01-26T09:48:18.396Z,11.10
2019-01-26T09:50:42.812Z,11.60
2019-01-26T09:53:07.322Z,10.73
2019-01-26T09:55:43.346Z,9.47
2019-01-26T09:58:07.798Z,8.23
2019-01-26T10:00:32.192Z,8.50
2019-01-26T10:02:56.624Z,6.93
2019-01-26T10:05:21.098Z,6.50
2019-01-26T10:07:45.494Z,6.67
2019-01-26T10:13:07.212Z,6.77
2019-01-26T10:18:26.499Z,6.90
2019-01-26T10:20:50.938Z,7.53
2019-01-26T10:23:15.323Z,8.47
2019-01-26T10:25:39.816Z,9.47
2019-01-26T10:33:35.181Z,8.20
2019-01-26T10:36:18.779Z,7.23
2019-01-26T10:46:29.566Z,7.90
2019-01-26T10:49:00.441Z,7.40
2019-01-26T10:51:28.914Z,7.37
2019-01-26T10:53:53.319Z,6.67
2019-01-26T10:56:17.702Z,7.53
2019-01-26T10:58:42.112Z,6.50
2019-01-26T11:01:17.707Z,6.87
2019-01-26T11:03:42.133Z,6.57
2019-01-26T11:06:06.614Z,6.57
2019-01-26T11:08:31.037Z,6.73
2019-01-26T11:10:55.434Z,6.40
2019-01-26T11:13:19.840Z,6.20
2019-01-26T11:15:44.312Z,6.57
2019-01-26T11:18:28.068Z,5.83
2019-01-26T11:21:11.795Z,6.00
2019-01-26T11:23:36.230Z,5.60
2019-01-26T11:26:00.679Z,5.63
2019-01-26T11:28:37.545Z,5.73
2019-01-26T11:31:01.945Z,5.80
2019-01-26T11:33:26.347Z,5.20
2019-01-26T11:35:50.767Z,5.27
2019-01-26T11:38:15.172Z,5.10
2019-01-26T11:40:39.660Z,5.27
2019-01-26T11:43:04.084Z,5.43
2019-01-26T11:51:18.616Z,5.17
2019-01-26T11:53:43.021Z,4.73
2019-01-26T12:09:38.349Z,4.40
2019-01-26T12:12:02.750Z,4.40
2019-01-26T12:14:27.148Z,4.57
2019-01-26T12:17:10.961Z,4.90
2019-01-26T12:19:35.381Z,5.07
2019-01-26T12:21:59.766Z,8.17
2019-01-26T12:24:24.143Z,5.13
2019-01-26T12:26:48.564Z,6.93
2019-01-26T12:29:12.965Z,8.53
2019-01-26T12:31:37.404Z,10.30
2019-01-26T12:34:01.810Z,11.43
2019-01-26T12:36:26.265Z,10.70
2019-01-26T12:38:50.703Z,8.23
2019-01-26T12:41:15.112Z,7.07
2019-01-26T12:43:39.519Z,6.53
2019-01-26T12:46:04.002Z,6.27
2019-01-26T12:48:28.419Z,8.47
2019-01-26T12:50:52.810Z,8.97
2019-01-26T12:53:17.222Z,11.03
2019-01-26T12:55:41.789Z,10.57
2019-01-26T12:58:06.269Z,11.07
2019-01-26T13:00:42.984Z,7.50
2019-01-26T13:03:07.527Z,8.03
2019-01-26T13:05:31.946Z,7.57
2019-01-26T13:07:56.332Z,12.83
2019-01-26T13:13:17.274Z,9.10
2019-01-26T13:15:41.708Z,11.63
2019-01-26T13:18:06.380Z,8.00
2019-01-26T13:20:30.808Z,7.33
2019-01-26T13:22:55.196Z,8.17
2019-01-26T13:25:19.804Z,10.13
2019-01-26T13:27:44.203Z,9.37
2019-01-26T13:30:29.427Z,9.90
2019-01-26T13:32:53.836Z,8.50
2019-01-26T13:35:18.295Z,5.97
2019-01-26T13:37:42.726Z,6.50
2019-01-26T13:43:03.786Z,9.83
2019-01-26T13:45:28.173Z,8.87
2019-01-26T13:47:52.624Z,10.17
2019-01-26T13:50:17.094Z,9.10
2019-01-26T13:58:13.584Z,8.00
2019-01-26T14:00:38.066Z,8.47
2019-01-26T14:03:02.543Z,9.47
2019-01-26T14:08:03.932Z,9.00
2019-01-26T14:10:28.423Z,7.60
2019-01-26T14:12:52.817Z,8.90
2019-01-26T14:18:33.619Z,8.57
2019-01-26T14:20:58.041Z,12.10
2019-01-26T14:23:22.459Z,11.90
2019-01-26T14:25:46.885Z,10.97
2019-01-26T14:28:11.290Z,9.90
2019-01-26T14:30:55.235Z,8.47
2019-01-26T14:33:19.634Z,8.07
2019-01-26T14:35:44.029Z,8.70
2019-01-26T14:38:08.519Z,8.30
2019-01-26T14:40:33.096Z,7.27
2019-01-26T14:42:57.524Z,8.10
2019-01-26T14:45:21.911Z,7.83
2019-01-26T14:47:46.336Z,8.10
2019-01-26T14:53:07.671Z,7.77
2019-01-26T15:01:05.120Z,7.00
2019-01-26T15:03:29.550Z,6.87
2019-01-26T15:05:53.946Z,6.60
2019-01-26T15:08:18.353Z,6.33
2019-01-26T15:10:42.756Z,5.57
2019-01-26T15:13:07.150Z,7.67
2019-01-26T15:15:31.581Z,12.27
2019-01-26T15:17:55.981Z,6.93
2019-01-26T15:20:40.227Z,4.90
2019-01-26T15:26:01.849Z,4.97
2019-01-26T15:28:26.237Z,5.93
2019-01-26T15:30:50.727Z,5.27
2019-01-26T15:33:15.384Z,6.07
2019-01-26T15:35:39.868Z,6.10
2019-01-26T15:41:01.539Z,4.10
2019-01-26T15:43:25.978Z,5.03
2019-01-26T15:45:50.447Z,5.40
2019-01-26T15:48:14.835Z,4.70
2019-01-26T15:50:39.305Z,4.07
2019-01-26T15:53:03.877Z,6.07
2019-01-26T15:55:28.567Z,8.80
2019-01-26T15:57:53.217Z,4.80
2019-01-26T16:00:56.245Z,4.60
2019-01-26T16:03:20.746Z,4.97
2019-01-26T16:05:45.189Z,5.23
2019-01-26T16:08:09.722Z,5.90
2019-01-26T16:10:34.209Z,5.43
2019-01-26T16:12:58.626Z,6.47
2019-01-26T16:20:55.394Z,10.77
2019-01-26T16:23:19.831Z,10.07
2019-01-26T16:25:44.242Z,8.83
2019-01-26T16:28:08.657Z,9.57
2019-01-26T16:33:30.332Z,9.30
2019-01-26T16:35:54.727Z,9.43
2019-01-26T16:38:31.745Z,9.67
2019-01-26T16:40:56.231Z,9.43
2019-01-26T16:43:20.640Z,9.73
2019-01-26T16:45:45.062Z,10.77
2019-01-26T16:51:06.018Z,9.67
2019-01-26T16:53:30.427Z,8.70
2019-01-26T16:55:54.868Z,10.57
2019-01-26T16:58:19.282Z,10.47
2019-01-26T17:03:40.826Z,9.17
2019-01-26T17:06:05.495Z,9.23
2019-01-26T17:08:29.921Z,11.03
2019-01-26T17:10:54.315Z,14.23
2019-01-26T17:13:24.320Z,10.27
2019-01-26T17:15:48.760Z,13.30
2019-01-26T17:18:14.141Z,10.83
2019-01-26T17:20:45.309Z,10.17
2019-01-26T17:23:09.705Z,11.27
2019-01-26T17:25:39.806Z,11.17
2019-01-26T17:28:15.435Z,16.13
2019-01-26T17:33:37.031Z,11.63
2019-01-26T17:36:01.426Z,11.20
2019-01-26T17:38:25.933Z,11.20
2019-01-26T17:40:54.364Z,11.57
2019-01-26T17:43:34.240Z,10.80
2019-01-26T17:45:58.647Z,12.23
2019-01-26T17:48:35.534Z,12.57
2019-01-26T17:50:59.950Z,10.40
2019-01-26T17:53:30.431Z,12.97
2019-01-26T17:58:30.879Z,12.73
2019-01-26T18:03:30.786Z,15.77
2019-01-26T18:06:07.610Z,15.23
2019-01-26T18:08:32.074Z,14.27
2019-01-26T18:10:56.597Z,16.53
2019-01-26T18:13:21.020Z,17.27
2019-01-26T18:18:24.297Z,17.67
2019-01-26T18:20:49.358Z,16.93
2019-01-26T18:25:59.164Z,17.20
2019-01-26T18:28:23.588Z,17.73
2019-01-26T18:30:48.001Z,17.60
2019-01-26T18:33:29.827Z,18.13
2019-01-26T18:35:54.262Z,17.70
2019-01-26T18:38:18.739Z,17.80
2019-01-26T18:40:43.150Z,18.33
2019-01-26T18:43:07.598Z,17.37
2019-01-26T18:45:52.809Z,16.63
2019-01-26T18:51:13.842Z,16.83
2019-01-26T18:53:38.269Z,17.80
2019-01-26T18:56:02.702Z,17.07
2019-01-26T18:58:27.130Z,17.70
2019-01-26T19:00:51.538Z,17.40
2019-01-26T19:06:12.600Z,18.50
2019-01-26T19:08:37.022Z,19.13
2019-01-26T19:11:01.419Z,17.50
2019-01-26T19:16:01.573Z,19.10
2019-01-26T19:18:25.969Z,20.27
2019-01-26T19:23:26.469Z,23.30
2019-01-26T19:25:50.950Z,22.30
2019-01-26T19:28:15.349Z,22.90
2019-01-26T19:30:39.771Z,27.63
2019-01-26T19:33:15.145Z,24.70
2019-01-26T19:35:39.567Z,30.17
2019-01-26T19:38:04.239Z,30.13
2019-01-26T19:40:28.642Z,27.27
2019-01-26T19:43:05.501Z,23.63
2019-01-26T19:45:29.934Z,24.00
2019-01-26T19:47:54.344Z,27.67
2019-01-26T19:53:15.256Z,23.57
2019-01-26T19:55:44.995Z,23.73
2019-01-26T19:58:09.549Z,24.03
2019-01-26T20:00:34.005Z,22.43
2019-01-26T20:02:59.347Z,23.63
2019-01-26T20:05:33.568Z,22.57
2019-01-26T20:07:58.147Z,21.20
2019-01-26T20:10:33.742Z,21.67
2019-01-26T20:12:58.183Z,19.17
2019-01-26T20:18:19.653Z,20.20
2019-01-26T20:20:44.059Z,19.50
2019-01-26T20:23:20.422Z,20.73
2019-01-26T20:25:44.826Z,20.57
2019-01-26T20:28:09.297Z,20.23
2019-01-26T20:30:45.517Z,19.47
2019-01-26T20:33:09.999Z,19.57
2019-01-26T20:35:34.427Z,20.67
2019-01-26T20:37:58.911Z,20.77
2019-01-26T20:43:20.491Z,20.23
2019-01-26T20:45:44.986Z,21.43
2019-01-26T20:48:09.417Z,21.97
2019-01-26T20:50:45.751Z,22.70
2019-01-26T20:53:10.256Z,21.87
2019-01-26T20:55:34.678Z,20.93
2019-01-26T20:58:11.102Z,20.90
2019-01-26T21:00:35.668Z,20.53
2019-01-26T21:03:00.096Z,21.03
2019-01-26T21:05:35.227Z,21.10
2019-01-26T21:07:59.682Z,20.80
2019-01-26T21:13:21.378Z,21.13
2019-01-26T21:15:57.498Z,22.33
2019-01-26T21:18:21.941Z,22.70
2019-01-26T21:20:46.364Z,20.90
2019-01-26T21:23:10.800Z,20.30
2019-01-26T21:25:35.208Z,20.70
2019-01-26T21:27:59.617Z,20.87
2019-01-26T21:33:20.885Z,20.80
2019-01-26T21:35:46.310Z,20.30
2019-01-26T21:38:10.741Z,20.30
2019-01-26T21:40:35.140Z,19.00
2019-01-26T21:45:56.323Z,18.67
2019-01-26T21:48:20.734Z,18.83
2019-01-26T21:50:45.144Z,17.57
2019-01-26T21:53:09.640Z,18.17
2019-01-26T21:55:34.059Z,16.70
2019-01-26T21:57:58.485Z,16.90
2019-01-26T22:03:19.737Z,16.47
2019-01-26T22:05:44.143Z,14.43
2019-01-26T22:08:08.557Z,14.63
2019-01-26T22:10:32.970Z,14.57
2019-01-26T22:12:57.563Z,13.10
2019-01-26T22:18:18.702Z,13.07
2019-01-26T22:20:43.111Z,13.33
2019-01-26T22:23:07.571Z,12.53
2019-01-26T22:25:31.994Z,12.43
2019-01-26T22:30:53.422Z,13.70
2019-01-26T22:33:17.809Z,13.20
2019-01-26T22:35:42.287Z,12.77
2019-01-26T22:38:06.763Z,13.43
2019-01-26T22:40:50.526Z,12.07
2019-01-26T22:43:26.976Z,12.00
2019-01-26T22:48:26.366Z,12.70
2019-01-26T22:50:50.791Z,11.77
2019-01-26T22:53:15.218Z,11.87
2019-01-26T22:55:39.632Z,12.13
2019-01-26T22:58:04.049Z,11.97
2019-01-26T23:04:03.907Z,11.00
2019-01-26T23:06:59.240Z,11.13
2019-01-26T23:10:02.269Z,10.40
2019-01-26T23:13:05.265Z,11.57
2019-01-26T23:19:04.841Z,11.37
2019-01-26T23:30:58.395Z,10.83
2019-01-26T23:33:22.807Z,11.20
2019-01-26T23:35:47.250Z,10.60
2019-01-26T23:38:11.657Z,11.20
2019-01-26T23:40:36.057Z,10.63
2019-01-26T23:43:00.482Z,10.53
2019-01-26T23:45:25.038Z,11.10
2019-01-26T23:47:49.450Z,11.17
2019-01-26T23:50:14.003Z,11.30
2019-01-26T23:52:38.429Z,11.33
2019-01-26T23:55:02.820Z,11.40
2019-01-26T23:57:39.367Z,11.43
